Time;durP1;ratioP1;P1;durP2;ratioP2;P2;SDS_P1;SDS_P2;PMS_P1;PMS_P2;Temp;Humidity;BMP_temperature;BMP_pressure;BME280_temperature;BME280_humidity;BME280_pressure;Samples;Min_cycle;Max_cycle;Signal;HPM_P1;HPM_P2
2022/04/24 00:01:32;;;;;;;3.83;2.20;;;15.00;99.90;;;;;;5063328;28;20578;-70
2022/04/24 00:03:59;;;;;;;7.33;2.30;;;15.10;99.90;;;;;;5054822;28;20241;-71
2022/04/24 00:06:25;;;;;;;7.53;2.40;;;15.00;99.90;;;;;;5067169;28;20254;-70
2022/04/24 00:08:52;;;;;;;6.00;2.30;;;15.10;99.90;;;;;;5074344;28;20198;-70
2022/04/24 00:11:19;;;;;;;8.03;2.10;;;15.00;99.90;;;;;;5063424;28;20207;-70
2022/04/24 00:13:46;;;;;;;6.87;2.40;;;15.00;99.90;;;;;;5066069;28;20190;-71
2022/04/24 00:16:12;;;;;;;3.27;1.83;;;15.00;99.90;;;;;;5086631;28;20193;-71
2022/04/24 00:18:39;;;;;;;8.90;2.20;;;15.00;99.90;;;;;;5049491;28;20294;-71
2022/04/24 00:21:07;;;;;;;4.37;2.17;;;15.00;99.90;;;;;;5068259;28;20220;-71
2022/04/24 00:23:35;;;;;;;6.73;2.53;;;15.00;99.90;;;;;;5061318;28;20198;-70
2022/04/24 00:26:01;;;;;;;7.03;2.40;;;15.00;99.90;;;;;;5063308;28;20226;-70
2022/04/24 00:28:31;;;;;;;5.90;2.20;;;15.00;99.90;;;;;;5068744;28;20802;-70
2022/04/24 00:30:58;;;;;;;4.17;2.00;;;15.00;99.90;;;;;;5066728;28;20221;-70
2022/04/24 00:33:25;;;;;;;7.23;2.17;;;15.00;99.90;;;;;;5075660;28;20202;-70
2022/04/24 00:35:54;;;;;;;5.20;2.20;;;15.00;99.90;;;;;;5063057;28;20177;-70
2022/04/24 00:38:23;;;;;;;6.07;2.33;;;14.90;99.90;;;;;;5091940;28;20655;-71
2022/04/24 00:40:49;;;;;;;8.57;2.30;;;15.00;99.90;;;;;;5065284;28;20266;-70
2022/04/24 00:43:18;;;;;;;6.57;2.50;;;14.90;99.90;;;;;;5086287;28;20744;-70
2022/04/24 00:45:45;;;;;;;5.77;2.53;;;14.90;99.90;;;;;;5088637;28;20210;-70
2022/04/24 00:48:11;;;;;;;9.70;2.27;;;14.90;99.90;;;;;;5080277;28;20222;-70
2022/04/24 00:50:39;;;;;;;4.63;1.90;;;14.90;99.90;;;;;;5055178;28;20217;-70
2022/04/24 00:53:06;;;;;;;3.83;2.03;;;14.90;99.90;;;;;;5067463;28;20190;-70
2022/04/24 00:55:36;;;;;;;3.07;2.20;;;14.90;99.90;;;;;;5072670;28;20194;-71
2022/04/24 00:58:04;;;;;;;4.67;2.10;;;14.90;99.90;;;;;;5052858;28;20190;-71
2022/04/24 01:00:30;;;;;;;4.03;2.10;;;14.80;99.90;;;;;;5069558;28;20195;-71
2022/04/24 01:02:56;;;;;;;4.07;2.23;;;14.80;99.90;;;;;;5064957;28;20186;-71
2022/04/24 01:05:23;;;;;;;5.20;1.97;;;14.80;99.90;;;;;;5054924;28;20186;-70
2022/04/24 01:07:50;;;;;;;5.00;2.20;;;14.80;99.90;;;;;;5060717;28;20206;-70
2022/04/24 01:10:16;;;;;;;5.67;2.50;;;14.80;99.90;;;;;;5066583;28;20243;-70
2022/04/24 01:12:43;;;;;;;6.50;2.63;;;14.80;99.90;;;;;;5078131;28;20221;-70
2022/04/24 01:15:09;;;;;;;4.13;2.10;;;14.80;99.90;;;;;;5082929;28;20243;-71
2022/04/24 01:17:36;;;;;;;3.90;2.10;;;14.80;99.90;;;;;;5069996;28;20639;-70
2022/04/24 01:20:03;;;;;;;3.43;2.07;;;14.90;99.90;;;;;;5064560;28;20197;-70
2022/04/24 01:22:29;;;;;;;4.33;2.60;;;14.80;99.90;;;;;;5074207;28;21658;-70
2022/04/24 01:24:56;;;;;;;3.40;2.30;;;14.80;99.90;;;;;;5049535;28;20274;-70
2022/04/24 01:27:22;;;;;;;2.90;1.90;;;14.80;99.90;;;;;;5068638;28;21921;-70
2022/04/24 01:29:48;;;;;;;3.80;2.10;;;14.90;99.90;;;;;;5064908;28;20225;-71
2022/04/24 01:32:14;;;;;;;4.50;2.20;;;14.80;99.90;;;;;;5054526;28;20240;-71
2022/04/24 01:34:41;;;;;;;3.33;2.17;;;14.80;99.90;;;;;;5064821;28;20579;-70
2022/04/24 01:37:08;;;;;;;6.10;2.23;;;14.80;99.90;;;;;;5084049;28;20240;-70
2022/04/24 01:39:34;;;;;;;5.13;2.07;;;14.80;99.90;;;;;;5050686;28;20186;-70
2022/04/24 01:42:01;;;;;;;3.97;2.23;;;14.80;99.90;;;;;;5071286;28;20666;-71
2022/04/24 01:44:27;;;;;;;4.07;2.10;;;14.80;99.90;;;;;;5057199;28;20269;-71
2022/04/24 01:46:54;;;;;;;4.20;2.07;;;14.80;99.90;;;;;;5077567;28;20246;-71
2022/04/24 01:49:21;;;;;;;8.93;2.00;;;14.80;99.90;;;;;;5071733;28;20240;-71
2022/04/24 01:51:48;;;;;;;3.57;1.87;;;14.80;99.90;;;;;;5082007;28;20222;-70
2022/04/24 01:54:17;;;;;;;5.07;1.97;;;14.80;99.90;;;;;;5046933;28;20186;-71
2022/04/24 01:56:45;;;;;;;8.23;2.57;;;14.80;99.90;;;;;;5068461;28;20182;-71
2022/04/24 01:59:11;;;;;;;3.43;2.00;;;14.80;99.90;;;;;;5054800;28;20178;-70
2022/04/24 02:01:40;;;;;;;4.63;2.23;;;14.80;99.90;;;;;;5075258;28;20257;-70
2022/04/24 02:04:07;;;;;;;5.77;2.50;;;14.80;99.90;;;;;;5072779;28;20197;-70
2022/04/24 02:06:33;;;;;;;3.93;2.20;;;14.80;99.90;;;;;;5062833;28;20187;-71
2022/04/24 02:08:59;;;;;;;3.17;2.00;;;14.80;99.90;;;;;;5058830;28;20278;-70
2022/04/24 02:11:26;;;;;;;4.30;2.40;;;14.80;99.90;;;;;;5082565;28;20213;-70
2022/04/24 02:13:52;;;;;;;3.47;2.13;;;14.80;99.90;;;;;;5084896;28;20186;-70
2022/04/24 02:16:18;;;;;;;6.73;2.10;;;14.80;99.90;;;;;;5067347;28;20195;-70
2022/04/24 02:18:45;;;;;;;8.23;2.33;;;14.70;99.90;;;;;;5055740;28;20233;-71
2022/04/24 02:21:12;;;;;;;4.57;2.13;;;14.80;99.90;;;;;;5068213;28;20195;-70
2022/04/24 02:23:40;;;;;;;6.60;2.33;;;14.80;99.90;;;;;;5050936;28;20193;-72
2022/04/24 02:26:06;;;;;;;4.37;2.30;;;14.70;99.90;;;;;;5064619;28;20205;-70
2022/04/24 02:28:32;;;;;;;7.03;2.10;;;14.70;99.90;;;;;;5088422;28;20206;-71
2022/04/24 02:30:59;;;;;;;3.50;1.80;;;14.80;99.90;;;;;;5077267;28;20206;-71
2022/04/24 02:33:25;;;;;;;4.97;1.97;;;14.70;99.90;;;;;;5080560;28;20206;-71
2022/04/24 02:35:51;;;;;;;4.60;1.87;;;14.70;99.90;;;;;;5058046;28;20195;-70
2022/04/24 02:38:18;;;;;;;3.47;1.87;;;14.70;99.90;;;;;;5069663;28;20232;-70
2022/04/24 02:40:44;;;;;;;5.37;2.30;;;14.80;99.90;;;;;;5059665;28;20273;-71
2022/04/24 02:43:10;;;;;;;3.73;1.90;;;14.70;99.90;;;;;;5055894;28;20531;-71
2022/04/24 02:45:38;;;;;;;5.50;2.60;;;14.70;99.90;;;;;;5066728;28;20206;-70
2022/04/24 02:48:05;;;;;;;3.87;2.40;;;14.70;99.90;;;;;;5052949;28;20201;-71
2022/04/24 02:50:32;;;;;;;3.03;2.40;;;14.80;99.90;;;;;;5069104;28;20316;-70
2022/04/24 02:52:59;;;;;;;5.90;2.13;;;14.70;99.90;;;;;;5068538;28;20197;-70
2022/04/24 02:55:26;;;;;;;5.47;2.23;;;14.70;99.90;;;;;;5058952;28;20228;-70
2022/04/24 02:57:54;;;;;;;7.10;2.00;;;14.70;99.90;;;;;;5056598;28;20225;-70
2022/04/24 03:00:24;;;;;;;4.60;2.07;;;14.80;99.90;;;;;;5063266;28;21150;-72
2022/04/24 03:02:54;;;;;;;3.27;1.97;;;14.70;99.90;;;;;;5080215;28;20187;-70
2022/04/24 03:05:23;;;;;;;6.13;1.97;;;14.70;99.90;;;;;;5045775;28;20186;-70
2022/04/24 03:07:51;;;;;;;8.57;2.03;;;14.70;99.90;;;;;;5054368;28;20276;-70
2022/04/24 03:10:19;;;;;;;4.77;2.37;;;14.70;99.90;;;;;;5075132;28;20223;-71
2022/04/24 03:12:46;;;;;;;4.90;2.20;;;14.70;99.90;;;;;;5066447;28;20198;-69
2022/04/24 03:15:14;;;;;;;3.53;2.13;;;14.70;99.90;;;;;;5056351;28;20247;-70
2022/04/24 03:17:41;;;;;;;5.17;2.27;;;14.70;99.90;;;;;;5067317;28;20190;-70
2022/04/24 03:20:11;;;;;;;8.10;2.40;;;14.60;99.90;;;;;;5080621;28;20653;-71
2022/04/24 03:22:38;;;;;;;3.53;2.20;;;14.70;99.90;;;;;;5055342;28;20226;-71
2022/04/24 03:25:09;;;;;;;7.53;2.20;;;14.70;99.90;;;;;;5070370;28;20202;-70
2022/04/24 03:27:40;;;;;;;4.97;2.17;;;14.60;99.90;;;;;;5054738;28;20201;-70
2022/04/24 03:30:12;;;;;;;3.80;2.40;;;14.60;99.90;;;;;;5050579;28;20222;-70
2022/04/24 03:32:39;;;;;;;5.87;2.23;;;14.70;99.90;;;;;;5074488;28;20229;-70
2022/04/24 03:35:09;;;;;;;10.20;2.00;;;14.60;99.90;;;;;;5066003;28;20248;-70
2022/04/24 03:37:43;;;;;;;6.23;2.10;;;14.60;99.90;;;;;;5064939;28;20193;-71
2022/04/24 03:40:10;;;;;;;6.77;2.00;;;14.60;99.90;;;;;;5075092;28;20281;-70
2022/04/24 03:42:37;;;;;;;4.33;2.10;;;14.60;99.90;;;;;;5065826;28;20240;-70
2022/04/24 03:45:08;;;;;;;6.70;2.50;;;14.60;99.90;;;;;;5070166;28;20256;-71
2022/04/24 03:47:34;;;;;;;7.97;2.60;;;14.60;99.90;;;;;;5050987;28;20216;-71
2022/04/24 03:50:01;;;;;;;3.90;2.63;;;14.70;99.90;;;;;;5049348;28;20214;-71
2022/04/24 03:52:28;;;;;;;7.20;2.50;;;14.60;99.90;;;;;;5052294;28;20182;-70
2022/04/24 03:54:56;;;;;;;5.63;2.10;;;14.60;99.90;;;;;;5069962;28;20186;-71
2022/04/24 03:57:23;;;;;;;7.07;2.27;;;14.70;99.90;;;;;;5083114;28;20538;-70
2022/04/24 03:59:49;;;;;;;7.83;3.00;;;14.70;99.90;;;;;;5051368;28;20238;-70
2022/04/24 04:02:16;;;;;;;5.23;2.30;;;14.70;99.90;;;;;;5069221;28;20198;-71
2022/04/24 04:04:43;;;;;;;7.97;2.37;;;14.70;99.90;;;;;;5074469;28;20190;-70
2022/04/24 04:07:09;;;;;;;6.67;1.90;;;14.70;99.90;;;;;;5082704;28;20579;-70
2022/04/24 04:09:35;;;;;;;4.77;2.17;;;14.70;99.90;;;;;;5087033;28;20656;-71
2022/04/24 04:12:06;;;;;;;5.23;2.30;;;14.70;99.90;;;;;;5073260;28;20205;-70
2022/04/24 04:14:32;;;;;;;9.43;1.97;;;14.80;99.90;;;;;;5072963;28;20648;-70
2022/04/24 04:16:58;;;;;;;6.97;2.37;;;14.80;99.90;;;;;;5066412;28;20187;-70
2022/04/24 04:19:26;;;;;;;5.23;2.17;;;14.80;99.90;;;;;;5067524;28;20636;-70
2022/04/24 04:21:52;;;;;;;6.50;2.27;;;14.80;99.90;;;;;;5052309;28;20186;-70
2022/04/24 04:24:20;;;;;;;8.50;2.30;;;14.80;99.90;;;;;;5091336;28;20187;-70
2022/04/24 04:26:47;;;;;;;4.87;2.60;;;14.80;99.90;;;;;;5061211;28;20198;-71
2022/04/24 04:29:14;;;;;;;4.30;2.50;;;14.90;99.90;;;;;;5063641;28;20658;-71
2022/04/24 04:31:40;;;;;;;7.23;2.20;;;14.90;99.90;;;;;;5073632;28;20281;-70
2022/04/24 04:34:06;;;;;;;6.23;2.27;;;14.90;99.90;;;;;;5082906;28;20277;-71
2022/04/24 04:36:33;;;;;;;12.90;2.37;;;15.00;99.90;;;;;;5062762;28;20178;-70
2022/04/24 04:39:00;;;;;;;3.87;2.13;;;15.00;99.90;;;;;;5059367;28;20249;-71
2022/04/24 04:41:27;;;;;;;5.90;2.23;;;15.10;99.90;;;;;;5063996;28;20579;-71
2022/04/24 04:43:57;;;;;;;5.47;2.10;;;15.10;99.90;;;;;;5069495;28;20252;-71
2022/04/24 04:46:23;;;;;;;7.90;2.80;;;15.20;99.90;;;;;;5045940;28;20639;-71
2022/04/24 04:48:51;;;;;;;4.63;2.30;;;15.20;99.90;;;;;;5070450;28;20201;-71
2022/04/24 04:51:17;;;;;;;4.97;2.20;;;15.30;99.90;;;;;;5070586;28;20206;-71
2022/04/24 04:53:46;;;;;;;4.17;2.10;;;15.30;99.90;;;;;;5068611;28;20183;-70
2022/04/24 04:56:15;;;;;;;7.93;2.93;;;15.40;99.90;;;;;;5071166;28;20190;-71
2022/04/24 04:58:41;;;;;;;10.07;2.70;;;15.40;99.90;;;;;;5056838;28;20571;-71
2022/04/24 05:01:07;;;;;;;6.03;2.40;;;15.40;99.90;;;;;;5080543;28;20198;-71
2022/04/24 05:03:33;;;;;;;7.20;3.10;;;15.50;99.90;;;;;;5060751;28;20256;-72
2022/04/24 05:06:00;;;;;;;6.43;2.43;;;15.50;99.90;;;;;;5045428;28;20186;-71
2022/04/24 05:08:33;;;;;;;7.00;2.20;;;15.70;99.90;;;;;;5053807;28;20277;-71
2022/04/24 05:11:01;;;;;;;5.03;2.30;;;15.70;99.90;;;;;;5084317;28;20225;-71
2022/04/24 05:13:31;;;;;;;3.50;2.00;;;15.70;99.90;;;;;;5043235;28;20645;-71
2022/04/24 05:15:58;;;;;;;6.07;2.40;;;15.70;99.90;;;;;;5047383;28;20193;-71
2022/04/24 05:18:25;;;;;;;5.57;2.47;;;15.90;99.90;;;;;;5066968;28;20194;-71
2022/04/24 05:20:52;;;;;;;3.80;2.40;;;16.00;99.90;;;;;;5051397;28;20995;-71
2022/04/24 05:23:19;;;;;;;6.10;2.50;;;16.00;99.90;;;;;;5070819;28;20220;-71
2022/04/24 05:25:46;;;;;;;4.60;2.47;;;16.10;99.90;;;;;;5047447;28;20606;-71
2022/04/24 05:28:12;;;;;;;4.77;2.40;;;16.00;99.90;;;;;;5044815;28;20217;-71
2022/04/24 05:30:38;;;;;;;3.90;2.50;;;16.20;99.90;;;;;;5076822;28;20221;-73
2022/04/24 05:33:05;;;;;;;5.07;2.23;;;16.20;99.90;;;;;;5060304;28;20302;-71
2022/04/24 05:35:32;;;;;;;5.47;2.60;;;16.10;99.90;;;;;;5055463;28;20194;-72
2022/04/24 05:37:59;;;;;;;4.93;2.20;;;16.30;99.90;;;;;;5052982;28;20282;-72
2022/04/24 05:40:28;;;;;;;3.03;1.80;;;16.20;99.90;;;;;;5047063;28;20655;-71
2022/04/24 05:42:55;;;;;;;5.07;2.50;;;16.20;99.90;;;;;;5072172;28;20688;-71
2022/04/24 05:45:24;;;;;;;4.67;2.10;;;16.30;99.90;;;;;;5056530;28;20202;-72
2022/04/24 05:47:54;;;;;;;6.33;2.00;;;16.40;99.90;;;;;;5054997;28;20190;-71
2022/04/24 05:50:23;;;;;;;4.77;2.40;;;16.40;99.90;;;;;;5062179;28;20218;-71
2022/04/24 05:52:59;;;;;;;2.77;1.93;;;16.40;99.90;;;;;;5067083;28;20307;-71
2022/04/24 05:55:26;;;;;;;2.43;1.73;;;16.40;99.90;;;;;;5066013;28;20269;-71
2022/04/24 05:57:55;;;;;;;4.23;1.90;;;16.40;99.90;;;;;;5056137;28;20193;-71
2022/04/24 06:00:25;;;;;;;2.67;1.90;;;16.60;99.90;;;;;;5068741;28;20230;-71
2022/04/24 06:02:52;;;;;;;7.03;2.47;;;16.60;99.90;;;;;;5057571;28;20189;-71
2022/04/24 06:05:19;;;;;;;3.20;1.90;;;16.60;99.90;;;;;;5057893;28;20193;-71
2022/04/24 06:07:45;;;;;;;5.70;2.10;;;16.70;99.90;;;;;;5054828;28;20186;-71
2022/04/24 06:10:12;;;;;;;5.13;2.20;;;16.70;99.90;;;;;;5083932;28;20207;-71
2022/04/24 06:12:55;;;;;;;3.67;1.90;;;16.70;99.90;;;;;;5066383;28;20182;-71
2022/04/24 06:15:28;;;;;;;4.27;2.30;;;16.70;99.90;;;;;;5070016;28;20189;-71
2022/04/24 06:17:58;;;;;;;12.20;2.33;;;16.80;99.90;;;;;;5071748;28;20186;-72
2022/04/24 06:20:26;;;;;;;4.10;2.20;;;16.80;99.90;;;;;;5055519;28;20198;-71
2022/04/24 06:22:55;;;;;;;7.17;2.07;;;16.90;99.90;;;;;;5070063;28;20190;-71
2022/04/24 06:25:34;;;;;;;5.60;2.13;;;17.00;99.90;;;;;;5058319;28;20194;-71
2022/04/24 06:28:03;;;;;;;5.63;2.03;;;17.00;99.90;;;;;;5059750;28;20206;-71
2022/04/24 06:30:35;;;;;;;3.20;1.90;;;17.10;99.90;;;;;;5060011;28;20318;-72
2022/04/24 06:33:01;;;;;;;3.13;2.00;;;17.10;99.90;;;;;;5041170;28;20206;-71
2022/04/24 06:35:29;;;;;;;5.77;2.23;;;17.20;99.90;;;;;;5063194;28;20273;-71
2022/04/24 06:37:55;;;;;;;3.67;2.13;;;17.20;99.90;;;;;;5056221;28;20327;-71
2022/04/24 06:40:25;;;;;;;5.97;2.03;;;17.30;99.90;;;;;;5077926;28;20251;-71
2022/04/24 06:43:06;;;;;;;5.80;2.20;;;17.30;99.90;;;;;;5075190;28;20274;-71
2022/04/24 06:45:39;;;;;;;4.80;2.00;;;17.40;99.90;;;;;;5059287;28;20202;-72
2022/04/24 06:48:15;;;;;;;4.67;2.37;;;17.40;99.90;;;;;;5054907;28;20305;-71
2022/04/24 06:50:45;;;;;;;5.13;2.30;;;17.50;99.90;;;;;;5065805;28;20229;-72
2022/04/24 06:53:14;;;;;;;6.83;2.20;;;17.60;99.90;;;;;;5061549;28;20664;-71
2022/04/24 06:55:42;;;;;;;7.17;2.50;;;17.60;99.90;;;;;;5046520;28;20198;-72
2022/04/24 06:58:12;;;;;;;6.80;2.10;;;17.80;99.90;;;;;;5063410;28;20194;-71
2022/04/24 07:00:42;;;;;;;5.47;1.97;;;17.80;99.90;;;;;;5066259;28;20186;-72
2022/04/24 07:03:10;;;;;;;6.90;2.30;;;17.80;99.90;;;;;;5059169;28;20183;-71
2022/04/24 07:05:36;;;;;;;4.23;2.10;;;17.90;99.90;;;;;;5081494;28;20264;-71
2022/04/24 07:08:03;;;;;;;4.80;2.20;;;17.90;99.90;;;;;;5074416;28;20187;-72
2022/04/24 07:10:29;;;;;;;4.40;2.03;;;18.00;99.90;;;;;;5061499;28;20218;-72
2022/04/24 07:13:07;;;;;;;3.67;2.20;;;18.10;99.90;;;;;;5076608;28;20237;-72
2022/04/24 07:15:38;;;;;;;6.63;2.20;;;18.10;99.90;;;;;;5061466;28;20191;-71
2022/04/24 07:18:10;;;;;;;4.73;2.17;;;18.10;99.90;;;;;;5069351;28;20195;-71
2022/04/24 07:20:37;;;;;;;5.20;2.60;;;18.30;99.90;;;;;;5073764;28;20225;-72
2022/04/24 07:23:05;;;;;;;4.90;2.10;;;18.40;99.90;;;;;;5073962;28;20187;-71
2022/04/24 07:25:44;;;;;;;7.93;2.50;;;18.50;99.90;;;;;;5046264;28;20661;-72
2022/04/24 07:28:15;;;;;;;6.50;2.10;;;18.60;99.90;;;;;;5053348;28;20538;-72
2022/04/24 07:30:44;;;;;;;5.10;2.40;;;18.70;99.90;;;;;;5065217;28;20282;-71
2022/04/24 07:33:13;;;;;;;4.97;2.53;;;18.70;99.90;;;;;;5062533;28;20202;-71
2022/04/24 07:35:41;;;;;;;6.90;2.07;;;18.80;99.90;;;;;;5061261;28;20179;-72
2022/04/24 07:38:08;;;;;;;7.23;2.10;;;18.90;99.90;;;;;;5070671;28;20204;-71
2022/04/24 07:40:41;;;;;;;8.43;2.63;;;18.90;99.90;;;;;;5056906;28;20211;-72
2022/04/24 07:43:13;;;;;;;8.77;4.87;;;18.90;99.90;;;;;;5057224;28;20191;-72
2022/04/24 07:45:52;;;;;;;7.80;2.07;;;19.00;99.90;;;;;;5072688;28;20205;-72
2022/04/24 07:48:19;;;;;;;6.30;2.40;;;19.10;99.90;;;;;;5067789;28;20702;-71
2022/04/24 07:50:50;;;;;;;8.20;2.20;;;19.30;99.90;;;;;;5060616;28;20237;-72
2022/04/24 07:53:20;;;;;;;6.17;2.53;;;19.40;99.90;;;;;;5067856;28;20228;-72
2022/04/24 07:55:49;;;;;;;8.67;2.80;;;19.50;99.90;;;;;;5080455;28;20187;-71
2022/04/24 07:58:16;;;;;;;4.97;2.70;;;19.60;99.90;;;;;;5082222;28;20221;-72
2022/04/24 08:00:45;;;;;;;5.10;2.43;;;19.80;99.90;;;;;;5063506;28;20178;-73
2022/04/24 08:03:14;;;;;;;5.47;2.30;;;19.80;99.90;;;;;;5064240;28;20179;-73
2022/04/24 08:05:50;;;;;;;4.40;2.30;;;20.00;99.90;;;;;;5055854;28;20190;-73
2022/04/24 08:08:23;;;;;;;8.27;2.27;;;20.10;99.90;;;;;;5069406;28;20190;-72
2022/04/24 08:10:59;;;;;;;6.63;2.00;;;20.20;99.90;;;;;;5078035;28;20330;-73
2022/04/24 08:13:27;;;;;;;8.93;2.23;;;20.30;99.90;;;;;;5049317;28;20186;-72
2022/04/24 08:15:54;;;;;;;8.53;2.10;;;20.30;99.90;;;;;;5051237;28;20193;-72
2022/04/24 08:18:23;;;;;;;6.07;2.10;;;20.40;99.90;;;;;;5066636;28;20181;-73
2022/04/24 08:20:53;;;;;;;6.57;2.33;;;20.50;99.90;;;;;;5057785;28;20202;-71
2022/04/24 08:23:20;;;;;;;4.40;2.03;;;20.60;99.90;;;;;;5054353;28;20194;-72
2022/04/24 08:25:47;;;;;;;6.17;2.13;;;20.70;99.90;;;;;;5065513;28;20191;-72
2022/04/24 08:28:16;;;;;;;4.47;2.10;;;20.80;99.90;;;;;;5071139;28;20256;-72
2022/04/24 08:30:45;;;;;;;7.07;2.20;;;20.80;99.90;;;;;;5048857;28;20222;-72
2022/04/24 08:33:12;;;;;;;5.15;2.00;;;21.00;99.90;;;;;;5061251;28;20690;-72
2022/04/24 08:35:40;;;;;;;4.47;2.00;;;21.00;99.90;;;;;;5049925;28;20221;-72
2022/04/24 08:38:06;;;;;;;6.23;3.07;;;21.10;99.90;;;;;;5080798;28;20204;-72
2022/04/24 08:40:33;;;;;;;5.07;2.10;;;21.10;99.90;;;;;;5071708;28;20735;-72
2022/04/24 08:43:00;;;;;;;10.80;2.10;;;21.20;99.90;;;;;;5052816;28;20321;-72
2022/04/24 08:45:33;;;;;;;6.93;1.90;;;21.30;99.90;;;;;;5068486;28;20297;-72
2022/04/24 08:48:02;;;;;;;5.55;3.05;;;21.50;99.90;;;;;;5076256;28;20190;-72
2022/04/24 08:50:32;;;;;;;6.07;2.30;;;21.60;99.90;;;;;;5084047;28;20241;-73
2022/04/24 08:53:00;;;;;;;12.60;2.22;;;21.70;99.90;;;;;;5078749;28;20185;-72
2022/04/24 08:55:31;;;;;;;14.98;1.80;;;21.80;99.90;;;;;;5066407;28;20198;-73
2022/04/24 08:58:02;;;;;;;4.05;1.90;;;21.90;99.90;;;;;;5060735;28;20214;-72
2022/04/24 09:00:33;;;;;;;4.85;2.00;;;21.90;99.90;;;;;;5059757;28;20233;-72
2022/04/24 09:03:00;;;;;;;5.95;2.03;;;22.00;99.90;;;;;;5075946;28;20184;-72
2022/04/24 09:05:31;;;;;;;7.22;2.50;;;22.10;99.90;;;;;;5049526;28;20270;-72
2022/04/24 09:08:14;;;;;;;9.45;2.25;;;22.20;99.90;;;;;;5067039;28;20183;-72
2022/04/24 09:10:55;;;;;;;9.55;2.20;;;22.30;99.90;;;;;;5064468;28;20215;-72
2022/04/24 09:16:46;;;;;;;4.50;1.85;;;22.60;99.90;;;;;;5070258;28;20200;-73
2022/04/24 09:19:25;;;;;;;3.15;1.83;;;22.70;99.90;;;;;;5054815;28;20178;-72
2022/04/24 09:22:06;;;;;;;3.83;2.03;;;22.90;99.90;;;;;;5063976;28;20201;-73
2022/04/24 09:25:01;;;;;;;4.15;2.00;;;23.00;99.90;;;;;;5059735;28;20190;-73
2022/04/24 09:27:33;;;;;;;5.30;2.20;;;23.00;99.90;;;;;;5082966;28;20194;-73
2022/04/24 09:30:15;;;;;;;5.13;2.00;;;23.20;99.90;;;;;;5082984;28;20697;-73
2022/04/24 09:32:56;;;;;;;8.30;2.28;;;23.30;99.90;;;;;;5052999;28;20206;-72
2022/04/24 09:35:36;;;;;;;5.13;2.33;;;23.30;99.90;;;;;;5041707;28;20186;-73
2022/04/24 09:38:17;;;;;;;6.00;2.25;;;23.40;99.90;;;;;;5056270;28;20324;-73
2022/04/24 09:40:51;;;;;;;9.85;2.28;;;23.50;99.90;;;;;;5055975;28;20194;-73
2022/04/24 09:43:19;;;;;;;8.07;2.55;;;23.60;99.90;;;;;;5037626;28;20951;-72
2022/04/24 09:45:54;;;;;;;5.32;2.50;;;23.70;99.90;;;;;;5049074;28;20233;-72
2022/04/24 09:48:26;;;;;;;6.22;2.53;;;23.80;99.90;;;;;;5046000;28;20614;-72
2022/04/24 09:51:00;;;;;;;5.30;2.08;;;24.00;99.90;;;;;;5059898;28;20224;-72
2022/04/24 09:53:34;;;;;;;4.75;2.10;;;24.00;99.90;;;;;;5061882;28;20182;-73
2022/04/24 09:56:03;;;;;;;5.80;2.10;;;24.20;99.90;;;;;;5054485;28;20683;-72
2022/04/24 09:58:32;;;;;;;5.22;2.30;;;24.20;99.90;;;;;;5067061;28;20265;-72
2022/04/24 10:00:59;;;;;;;5.18;1.77;;;24.30;99.90;;;;;;5070706;28;20191;-72
2022/04/24 10:03:26;;;;;;;5.70;2.03;;;24.30;99.90;;;;;;5052709;28;20194;-72
2022/04/24 10:05:52;;;;;;;9.60;2.10;;;24.40;99.90;;;;;;5068204;28;20741;-72
2022/04/24 10:08:19;;;;;;;4.10;2.15;;;24.50;99.90;;;;;;5090988;28;20190;-73
2022/04/24 10:10:47;;;;;;;3.55;2.20;;;24.50;99.90;;;;;;5055276;28;20206;-72
2022/04/24 10:13:14;;;;;;;13.15;2.60;;;24.60;99.90;;;;;;5052484;28;20186;-72
2022/04/24 10:15:53;;;;;;;10.93;2.42;;;24.60;99.90;;;;;;5082493;28;20190;-72
2022/04/24 10:18:49;;;;;;;6.97;2.25;;;24.70;99.90;;;;;;5070387;28;20190;-72
2022/04/24 10:21:31;;;;;;;6.75;2.53;;;24.80;99.90;;;;;;5056410;28;20285;-72
2022/04/24 10:24:44;;;;;;;6.10;2.05;;;24.80;99.90;;;;;;5082965;28;20190;-73
2022/04/24 10:27:11;;;;;;;3.53;2.00;;;24.80;99.90;;;;;;5069274;28;20682;-72
2022/04/24 10:29:59;;;;;;;7.40;2.95;;;24.90;99.90;;;;;;5078459;28;20203;-72
2022/04/24 10:32:30;;;;;;;5.97;2.10;;;25.00;99.90;;;;;;5085312;28;20258;-72
2022/04/24 10:34:57;;;;;;;7.63;2.60;;;24.90;99.90;;;;;;5051035;28;20210;-72
2022/04/24 10:37:36;;;;;;;6.40;2.92;;;25.00;99.90;;;;;;5081638;28;20261;-72
2022/04/24 10:40:11;;;;;;;8.98;2.70;;;25.00;99.90;;;;;;5067948;28;20257;-72
2022/04/24 10:42:38;;;;;;;5.00;2.20;;;25.00;99.90;;;;;;5072791;28;20197;-72
2022/04/24 10:45:16;;;;;;;7.57;2.47;;;25.00;99.90;;;;;;5076619;28;20190;-72
2022/04/24 10:47:55;;;;;;;7.78;2.53;;;25.10;99.90;;;;;;5077728;28;20189;-72
2022/04/24 10:50:22;;;;;;;7.05;2.28;;;25.10;99.90;;;;;;5053292;28;20202;-72
2022/04/24 10:52:55;;;;;;;6.30;2.20;;;25.10;99.90;;;;;;5050284;28;20338;-72
2022/04/24 10:55:30;;;;;;;4.97;2.65;;;25.20;99.90;;;;;;5057552;28;21120;-72
2022/04/24 10:58:00;;;;;;;5.38;1.92;;;25.20;99.90;;;;;;5048229;28;20293;-72
2022/04/24 11:00:40;;;;;;;5.35;2.25;;;25.20;99.90;;;;;;5044121;28;20205;-72
2022/04/24 11:03:14;;;;;;;6.30;2.28;;;25.20;99.90;;;;;;5066755;28;20658;-72
2022/04/24 11:05:47;;;;;;;5.70;2.30;;;25.30;99.70;;;;;;5047878;28;20189;-72
2022/04/24 11:08:20;;;;;;;3.67;1.85;;;25.20;99.10;;;;;;5056738;28;20198;-72
2022/04/24 11:10:50;;;;;;;5.30;2.20;;;25.30;99.90;;;;;;5078392;28;20210;-72
2022/04/24 11:13:20;;;;;;;5.63;2.20;;;25.40;99.40;;;;;;5069612;28;20729;-73
2022/04/24 11:15:50;;;;;;;6.97;2.00;;;25.40;98.70;;;;;;5061856;28;20506;-73
2022/04/24 11:18:27;;;;;;;14.35;2.58;;;25.40;98.50;;;;;;5065940;28;20729;-72
2022/04/24 11:21:06;;;;;;;10.95;2.20;;;25.40;99.00;;;;;;5081530;28;20678;-72
2022/04/24 11:23:38;;;;;;;10.07;2.28;;;25.50;99.30;;;;;;5060915;28;20244;-72
2022/04/24 11:26:12;;;;;;;8.23;2.10;;;25.60;99.20;;;;;;5077430;28;20197;-72
2022/04/24 11:28:42;;;;;;;11.77;2.75;;;25.60;99.10;;;;;;5048131;28;20185;-72
2022/04/24 11:31:19;;;;;;;7.63;2.20;;;25.50;98.90;;;;;;5078488;28;22113;-72
2022/04/24 11:34:01;;;;;;;4.00;2.10;;;25.60;99.00;;;;;;5076312;28;20266;-72
2022/04/24 11:36:35;;;;;;;6.22;2.22;;;25.70;99.20;;;;;;5056685;28;20193;-72
2022/04/24 11:39:09;;;;;;;4.55;2.08;;;25.70;99.00;;;;;;5065297;28;20182;-72
2022/04/24 11:41:36;;;;;;;15.90;2.38;;;25.70;99.50;;;;;;5081765;28;20198;-72
2022/04/24 11:50:30;;;;;;;9.15;2.75;;;25.80;99.80;;;;;;5078718;28;20196;-72
2022/04/24 11:52:46;;;;;;;4.75;2.00;;;25.90;99.90;;;;;;5062696;28;20199;-72
2022/04/24 11:55:23;;;;;;;7.85;2.20;;;25.90;99.90;;;;;;5066373;28;20187;-72
2022/04/24 11:58:02;;;;;;;7.90;2.05;;;25.90;99.90;;;;;;5084467;28;20186;-72
2022/04/24 12:00:39;;;;;;;7.50;2.10;;;26.00;99.90;;;;;;5051218;28;20214;-72
2022/04/24 12:03:09;;;;;;;6.22;2.25;;;26.00;99.90;;;;;;5076254;28;20193;-72
2022/04/24 12:05:36;;;;;;;6.63;1.98;;;26.00;99.90;;;;;;5071455;28;20191;-72
2022/04/24 12:08:04;;;;;;;2.83;2.08;;;25.90;99.80;;;;;;5082699;28;20320;-72
2022/04/24 12:10:30;;;;;;;16.38;2.35;;;26.00;99.70;;;;;;5061415;28;20222;-72
2022/04/24 12:13:06;;;;;;;11.20;2.50;;;26.10;98.70;;;;;;5058592;28;20191;-72
2022/04/24 12:15:34;;;;;;;14.82;2.33;;;26.00;98.90;;;;;;5052521;28;20186;-72
2022/04/24 12:18:05;;;;;;;7.35;2.20;;;26.10;99.10;;;;;;5074882;28;20194;-72
2022/04/24 12:20:41;;;;;;;9.13;2.70;;;26.10;98.00;;;;;;5065126;28;20226;-72
2022/04/24 12:23:18;;;;;;;5.63;2.38;;;26.10;97.90;;;;;;5052249;28;20547;-72
2022/04/24 12:25:51;;;;;;;5.15;2.28;;;26.00;97.70;;;;;;5065580;28;20836;-72
2022/04/24 12:28:41;;;;;;;7.20;1.95;;;26.10;99.30;;;;;;5053896;28;20182;-72
2022/04/24 12:31:26;;;;;;;9.13;2.40;;;26.10;99.60;;;;;;5051149;28;20217;-72
2022/04/24 12:33:56;;;;;;;9.52;1.80;;;26.20;98.30;;;;;;5053423;28;20194;-72
2022/04/24 12:36:24;;;;;;;4.03;1.80;;;26.20;98.40;;;;;;5080378;28;20182;-72
2022/04/24 12:39:04;;;;;;;9.95;2.47;;;26.20;96.70;;;;;;5084378;28;20665;-72
2022/04/24 12:41:37;;;;;;;14.73;2.20;;;26.20;97.60;;;;;;5065973;28;20281;-72
2022/04/24 12:44:08;;;;;;;4.35;2.00;;;26.10;98.10;;;;;;5069766;28;20206;-72
2022/04/24 12:46:36;;;;;;;4.47;2.28;;;26.20;98.10;;;;;;5052374;28;20207;-72
2022/04/24 12:49:03;;;;;;;6.93;2.40;;;26.30;98.10;;;;;;5065512;28;20249;-72
2022/04/24 12:51:31;;;;;;;8.35;2.00;;;26.30;98.20;;;;;;5048395;28;20268;-72
2022/04/24 12:54:00;;;;;;;13.27;2.42;;;26.30;98.60;;;;;;5084931;28;20592;-72
2022/04/24 12:56:30;;;;;;;6.32;2.10;;;26.30;99.90;;;;;;5068423;28;20183;-72
2022/04/24 12:58:58;;;;;;;4.15;2.13;;;26.30;94.00;;;;;;5069606;28;20689;-72
2022/04/24 13:01:25;;;;;;;9.18;2.47;;;26.30;93.90;;;;;;5077673;28;20182;-72
2022/04/24 13:03:54;;;;;;;12.73;2.28;;;26.30;93.80;;;;;;5066739;28;20183;-72
2022/04/24 13:06:25;;;;;;;7.03;2.10;;;26.30;94.50;;;;;;5050351;28;20186;-72
2022/04/24 13:08:53;;;;;;;10.05;2.47;;;26.30;94.80;;;;;;5071310;28;20186;-72